createdAt,value
2019-03-12T18:19:56.894Z,2.98
2019-03-12T18:22:29.667Z,3.07
2019-03-12T18:25:56.461Z,2.80
2019-03-12T18:28:29.579Z,2.90
2019-03-12T18:31:26.256Z,3.80
2019-03-12T18:33:52.751Z,3.27
2019-03-12T18:36:30.232Z,3.90
2019-03-12T18:39:06.159Z,3.33
2019-03-12T18:41:38.555Z,3.73
2019-03-12T18:44:10.099Z,3.67
2019-03-12T18:46:44.988Z,3.42
2019-03-12T18:49:13.385Z,3.70
2019-03-12T18:51:43.245Z,6.33
2019-03-12T18:54:09.583Z,4.73
2019-03-12T18:56:51.663Z,4.73
2019-03-12T18:59:28.928Z,7.20
2019-03-12T19:01:58.450Z,4.57
2019-03-12T19:04:31.109Z,3.80
2019-03-12T19:07:01.743Z,4.77
2019-03-12T19:09:28.313Z,4.53
2019-03-12T19:12:01.707Z,4.70
2019-03-12T19:14:35.255Z,2.53
2019-03-12T19:17:04.354Z,2.27
2019-03-12T19:19:34.054Z,2.67
2019-03-12T19:22:07.111Z,2.30
2019-03-12T19:24:34.470Z,2.23
2019-03-12T19:27:07.144Z,2.47
2019-03-12T19:29:38.364Z,3.67
2019-03-12T19:32:25.288Z,5.00
2019-03-12T19:35:30.066Z,5.60
2019-03-12T19:37:57.943Z,5.90
2019-03-12T19:40:59.699Z,6.13
2019-03-12T19:43:36.556Z,6.42
2019-03-12T19:46:18.779Z,6.47
2019-03-12T19:48:49.602Z,5.20
2019-03-12T19:51:24.102Z,5.07
2019-03-12T19:53:50.365Z,4.73
2019-03-12T19:56:16.804Z,4.30
2019-03-12T19:58:52.283Z,4.40
2019-03-12T20:01:19.021Z,4.23
2019-03-12T20:03:57.365Z,3.87
2019-03-12T20:06:48.777Z,4.70
2019-03-12T20:09:26.338Z,4.30
2019-03-12T20:11:56.416Z,4.50
2019-03-12T20:14:57.892Z,4.10
2019-03-12T20:18:01.767Z,4.20
2019-03-12T20:20:59.872Z,4.77
2019-03-12T20:24:02.187Z,4.33
2019-03-12T20:30:18.994Z,4.70
2019-03-12T20:33:37.989Z,4.33
2019-03-12T20:36:33.980Z,4.93
2019-03-12T20:39:26.914Z,6.03
2019-03-12T20:42:32.941Z,5.70
2019-03-12T20:45:24.215Z,7.47
2019-03-12T20:48:21.912Z,8.30
2019-03-12T20:51:22.469Z,8.40
2019-03-12T20:54:08.312Z,10.20
2019-03-12T20:57:12.060Z,10.47
2019-03-12T20:59:58.880Z,10.83
2019-03-12T21:02:45.701Z,12.13
2019-03-12T21:05:49.458Z,11.60
2019-03-12T21:08:45.933Z,11.20
2019-03-12T21:11:35.613Z,10.90
2019-03-12T21:14:34.721Z,10.17
2019-03-12T21:17:13.167Z,9.53
2019-03-12T21:19:55.394Z,9.97
2019-03-12T21:22:40.268Z,9.70
2019-03-12T21:25:13.216Z,8.90
2019-03-12T21:28:05.718Z,7.77
2019-03-12T21:30:32.060Z,6.90
2019-03-12T21:33:14.755Z,6.23
2019-03-12T21:35:32.622Z,5.53
2019-03-12T21:37:58.895Z,5.13
2019-03-12T21:40:25.169Z,5.43
2019-03-12T21:42:51.600Z,4.47
2019-03-12T21:45:20.934Z,4.40
2019-03-12T21:47:47.231Z,4.53
2019-03-12T21:50:13.532Z,4.03
2019-03-12T21:52:39.798Z,3.93
2019-03-12T21:55:09.908Z,3.77
2019-03-12T21:57:39.437Z,3.17
2019-03-12T22:00:12.055Z,2.83
2019-03-12T22:02:38.334Z,3.20
2019-03-12T22:05:04.720Z,2.70
2019-03-12T22:07:31.007Z,2.90
2019-03-12T22:09:57.301Z,2.97
2019-03-12T22:12:23.583Z,3.00
2019-03-12T22:14:49.878Z,3.30
2019-03-12T22:17:19.197Z,3.53
2019-03-12T22:19:45.482Z,2.83
2019-03-12T22:22:13.727Z,3.20
2019-03-12T22:24:40.123Z,2.87
2019-03-12T22:27:06.407Z,2.97
2019-03-12T22:29:32.720Z,2.87
2019-03-12T22:31:59.094Z,3.10
2019-03-12T22:34:25.371Z,2.73
2019-03-12T22:36:51.697Z,2.73
2019-03-12T22:39:18.003Z,2.73
2019-03-12T22:41:44.335Z,2.40
2019-03-12T22:44:10.705Z,2.23
2019-03-12T22:46:37.019Z,2.37
2019-03-12T22:49:03.346Z,2.37
2019-03-12T22:51:29.619Z,2.07
2019-03-12T22:53:55.907Z,2.33
2019-03-12T22:56:22.292Z,2.00
2019-03-12T22:58:48.589Z,2.53
2019-03-12T23:01:14.891Z,2.27
2019-03-12T23:03:41.214Z,1.93
2019-03-12T23:06:08.580Z,2.17
2019-03-12T23:08:34.893Z,2.10
2019-03-12T23:11:01.211Z,2.27
2019-03-12T23:13:30.546Z,2.00
2019-03-12T23:15:56.841Z,1.90
2019-03-12T23:18:23.127Z,1.87
2019-03-12T23:20:49.461Z,2.40
2019-03-12T23:23:15.818Z,1.90
2019-03-12T23:25:42.199Z,1.90
2019-03-12T23:28:08.493Z,2.27
2019-03-12T23:30:34.799Z,2.07
2019-03-12T23:33:01.057Z,2.10
2019-03-12T23:35:27.331Z,1.90
2019-03-12T23:37:53.759Z,2.53
2019-03-12T23:40:20.041Z,2.00
2019-03-12T23:42:46.361Z,1.93
2019-03-12T23:45:15.147Z,2.40
2019-03-12T23:47:41.488Z,2.07
2019-03-12T23:50:12.102Z,2.00
2019-03-12T23:52:38.418Z,2.07
2019-03-12T23:55:07.097Z,2.87
2019-03-12T23:57:33.421Z,2.27
2019-03-12T23:59:59.741Z,2.80
